Dalton, GA

7:08 PM EDT on September 17, 2014 (GMT -0400)
Lovell | Change Station
CLOSE
Current Station
Airport
Location: Chattanooga,
Elevation: 689 ft
Nearby Weather Stations

Elev 689 ft 35.04 °N, 85.20 °W | Updated 15 minutes ago

Clear
Clear
76 °F
Feels Like 76 °F
N
9
Wind Variable Wind from NNE

Today
High -- | Low -- °F
--% Chance of Precip.
Yesterday
High -- | Low -- °F
Precip. -- in
7:24 AM 7:43 PM
Waning Crescent, 32% visible
Pressure 29.93 in
Visibility 10.0 miles
Clouds Few 4600 ft
Mostly Cloudy 25000 ft
Dew Point 56 °F
Humidity 50%
Rainfall 0.00 in
Snow Depth Not available.
UV 0 out of 12
Pollen 7.30 out of 12
Air Quality Not available.
Flu Activity Not available.
METAR KCHA 172253Z 03008KT 10SM FEW046 BKN250 24/13 A2994 RMK AO2 SLP133 T02440133

More Conditions Fewer Conditions

Pressure 29.93 in
Visibility 10.0 miles
Clouds Few 4600 ft
Mostly Cloudy 25000 ft
Dew Point 56 °F
Humidity 50%
Rainfall 0.00 in
Snow Depth Not available.
UV 0 out of 12
Pollen 7.30 out of 12
Air Quality Not available.
Flu Activity Not available.
METAR KCHA 172253Z 03008KT 10SM FEW046 BKN250 24/13 A2994 RMK AO2 SLP133 T02440133

More Conditions Fewer Conditions

10-Day Weather Forecast

Almanac

Astronomy

Sep. 17, 2014 Rise Set
Actual Time 7:24 AM EDT 7:43 PM EDT
Civil Twilight 6:59 AM EDT 8:09 PM EDT
Nautical Twilight 6:29 AM EDT 8:38 PM EDT
Astronomical Twilight 5:59 AM EDT 9:08 PM EDT
Moon 1:33 AM EDT 3:43 PM EDT
Length of Visible Light 13h 10m
Length of Day
12h 19m
Tomorrow will be 2m 10s shorter.
Waning Crescent, 32% of the Moon is Illuminated
Today
Waning Crescent
Sep 24
New
Oct 1
First Quarter
Oct 8
Full
Oct 15
Last Quarter

Today's Extremes

State Highs State Lows

Community

WunderPhotos

Upload Photos

1,754,187 photos uploaded!

Nearby

Snow Depth

Station Depth Elevation
No new snow has been reported.

Earthquake Activity

City Distance Mag. Time & Date
No recent earthquake activity has been reported nearby.
Minimum magnitude displayed is 2.5.

Coastal Water Temperatures

Place Temperature
No Stations Reporting

Nearby Weather Stations